createdAt,value
2018-12-12T00:01:31.907Z,60.80
2018-12-12T00:04:03.365Z,60.86
2018-12-12T00:06:11.508Z,60.85
2018-12-12T00:08:17.586Z,61.09
2018-12-12T00:10:23.866Z,61.01
2018-12-12T00:12:31.099Z,60.72
2018-12-12T00:14:37.839Z,60.69
2018-12-12T00:16:44.092Z,60.61
2018-12-12T00:21:12.886Z,60.75
2018-12-12T00:23:18.957Z,60.60
2018-12-12T00:25:47.677Z,60.62
2018-12-12T00:28:16.612Z,60.75
2018-12-12T00:30:22.872Z,60.89
2018-12-12T00:32:28.963Z,60.88
2018-12-12T00:34:35.302Z,60.94
2018-12-12T00:36:42.278Z,60.63
2018-12-12T00:38:48.401Z,61.17
2018-12-12T00:40:55.752Z,61.03
2018-12-12T00:43:01.993Z,61.11
2018-12-12T00:45:08.221Z,60.98
2018-12-12T00:49:39.867Z,61.25
2018-12-12T00:51:46.189Z,60.78
2018-12-12T00:53:52.553Z,60.57
2018-12-12T00:55:58.665Z,60.95
2018-12-12T00:58:04.847Z,60.87
2018-12-12T01:00:33.783Z,60.77
2018-12-12T01:03:02.447Z,60.82
2018-12-12T01:05:08.889Z,60.95
2018-12-12T01:07:15.183Z,60.94
2018-12-12T01:11:44.433Z,61.21
2018-12-12T01:13:51.145Z,60.84
2018-12-12T01:15:57.392Z,61.16
2018-12-12T01:18:04.001Z,61.12
2018-12-12T01:20:10.348Z,60.85
2018-12-12T01:22:16.412Z,60.76
2018-12-12T01:24:45.049Z,60.74
2018-12-12T01:27:13.478Z,60.91
2018-12-12T01:29:19.649Z,60.86
2018-12-12T01:31:25.794Z,60.91
2018-12-12T01:33:31.906Z,60.85
2018-12-12T01:35:38.479Z,60.94
2018-12-12T01:37:45.007Z,60.89
2018-12-12T01:39:51.946Z,60.63
2018-12-12T01:42:20.788Z,60.92
2018-12-12T01:44:50.000Z,61.00
2018-12-12T01:46:57.193Z,60.74
2018-12-12T01:49:03.337Z,60.77
2018-12-12T01:51:10.024Z,61.06
2018-12-12T01:53:17.005Z,60.89
2018-12-12T01:55:23.347Z,61.09
2018-12-12T01:57:29.447Z,60.66
2018-12-12T01:59:35.608Z,60.58
2018-12-12T02:01:41.769Z,60.73
2018-12-12T02:03:48.118Z,60.93
2018-12-12T02:05:55.180Z,60.63
2018-12-12T02:08:01.415Z,60.67
2018-12-12T02:10:08.523Z,60.55
2018-12-12T02:12:14.720Z,60.55
2018-12-12T02:14:21.190Z,60.71
2018-12-12T02:16:27.435Z,60.57
2018-12-12T02:18:34.721Z,60.51
2018-12-12T02:20:40.937Z,60.50
2018-12-12T02:22:47.036Z,60.47
2018-12-12T02:24:53.378Z,60.67
2018-12-12T02:29:18.085Z,60.70
2018-12-12T02:31:24.560Z,60.82
2018-12-12T02:33:30.936Z,61.07
2018-12-12T02:35:37.115Z,60.84
2018-12-12T02:37:43.287Z,60.62
2018-12-12T02:39:49.429Z,60.86
2018-12-12T02:42:18.482Z,60.61
2018-12-12T02:44:46.746Z,60.83
2018-12-12T02:46:53.229Z,60.59
2018-12-12T02:48:59.431Z,60.75
2018-12-12T02:51:06.450Z,60.88
2018-12-12T02:53:13.022Z,60.65
2018-12-12T02:55:19.386Z,60.24
2018-12-12T02:57:25.552Z,60.49
2018-12-12T02:59:32.370Z,60.88
2018-12-12T03:01:38.481Z,61.18
2018-12-12T03:03:44.853Z,60.58
2018-12-12T03:05:52.049Z,60.56
2018-12-12T03:07:58.261Z,60.74
2018-12-12T03:10:04.717Z,60.67
2018-12-12T03:12:10.923Z,60.85
2018-12-12T03:14:17.155Z,60.58
2018-12-12T03:16:24.058Z,60.90
2018-12-12T03:18:30.936Z,60.69
2018-12-12T03:20:37.218Z,60.70
2018-12-12T03:22:43.621Z,60.54
2018-12-12T03:24:49.715Z,60.65
2018-12-12T03:26:55.906Z,60.42
2018-12-12T03:29:02.514Z,60.46
2018-12-12T03:31:08.624Z,60.63
2018-12-12T03:33:14.979Z,60.60
2018-12-12T03:35:21.823Z,60.40
2018-12-12T03:37:27.893Z,60.36
2018-12-12T03:39:34.935Z,60.58
2018-12-12T03:41:41.221Z,60.72
2018-12-12T03:43:47.368Z,60.67
2018-12-12T03:45:53.531Z,60.81
2018-12-12T03:47:59.665Z,60.81
2018-12-12T03:50:06.257Z,61.03
2018-12-12T03:52:13.281Z,60.86
2018-12-12T03:54:19.340Z,60.50
2018-12-12T03:56:25.666Z,60.58
2018-12-12T03:58:31.775Z,60.70
2018-12-12T04:00:37.949Z,60.92
2018-12-12T04:02:44.258Z,60.30
2018-12-12T04:05:13.465Z,60.76
2018-12-12T04:07:43.306Z,60.81
2018-12-12T04:09:49.578Z,60.63
2018-12-12T04:11:55.814Z,60.86
2018-12-12T04:14:02.506Z,60.78
2018-12-12T04:16:08.589Z,60.53
2018-12-12T04:18:14.781Z,60.78
2018-12-12T04:20:21.173Z,60.79
2018-12-12T04:22:27.319Z,60.54
2018-12-12T04:24:34.149Z,60.68
2018-12-12T04:26:41.497Z,60.69
2018-12-12T04:28:47.686Z,60.79
2018-12-12T04:30:54.752Z,60.52
2018-12-12T04:33:01.003Z,60.89
2018-12-12T04:35:07.734Z,60.90
2018-12-12T04:37:13.872Z,60.85
2018-12-12T04:39:20.338Z,60.48
2018-12-12T04:41:26.486Z,61.04
2018-12-12T04:43:33.852Z,60.47
2018-12-12T04:45:41.403Z,60.91
2018-12-12T04:47:47.516Z,60.86
2018-12-12T04:49:53.682Z,60.88
2018-12-12T04:52:00.055Z,60.90
2018-12-12T04:54:06.190Z,60.98
2018-12-12T04:56:14.270Z,60.65
2018-12-12T04:58:20.398Z,60.87
2018-12-12T05:00:26.495Z,60.76
2018-12-12T05:02:33.038Z,60.78
2018-12-12T05:04:39.996Z,60.85
2018-12-12T05:06:46.220Z,60.90
2018-12-12T05:08:52.507Z,60.84
2018-12-12T05:10:58.540Z,60.63
2018-12-12T05:13:04.644Z,60.92
2018-12-12T05:15:11.042Z,61.16
2018-12-12T05:17:17.257Z,60.80
2018-12-12T05:19:23.977Z,60.83
2018-12-12T05:21:30.362Z,61.02
2018-12-12T05:23:36.615Z,60.99
2018-12-12T05:25:42.711Z,61.04
2018-12-12T05:27:49.069Z,60.96
2018-12-12T05:29:55.289Z,60.88
2018-12-12T05:32:01.590Z,61.22
2018-12-12T05:34:07.730Z,60.71
2018-12-12T05:36:13.819Z,60.88
2018-12-12T05:38:20.121Z,60.95
2018-12-12T05:40:26.634Z,60.92
2018-12-12T05:42:34.985Z,60.79
2018-12-12T05:44:41.267Z,60.94
2018-12-12T05:46:47.385Z,60.95
2018-12-12T05:48:53.468Z,60.92
2018-12-12T05:50:59.683Z,60.88
2018-12-12T05:55:22.158Z,60.72
2018-12-12T05:57:28.816Z,61.00
2018-12-12T05:59:35.268Z,60.91
2018-12-12T06:01:41.436Z,60.93
2018-12-12T06:03:47.545Z,60.83
2018-12-12T06:06:15.985Z,61.11
2018-12-12T06:08:44.965Z,60.93
2018-12-12T06:10:51.087Z,61.05
2018-12-12T06:12:58.000Z,60.88
2018-12-12T06:15:04.424Z,60.71
2018-12-12T06:17:11.880Z,61.19
2018-12-12T06:19:18.115Z,60.87
2018-12-12T06:21:24.477Z,61.06
2018-12-12T06:23:30.689Z,61.02
2018-12-12T06:25:37.479Z,60.90
2018-12-12T06:27:43.539Z,60.92
2018-12-12T06:29:49.679Z,60.80
2018-12-12T06:31:55.863Z,61.19
2018-12-12T06:34:02.172Z,60.93
2018-12-12T06:36:08.285Z,60.88
2018-12-12T06:38:14.546Z,60.87
2018-12-12T06:40:20.771Z,60.70
2018-12-12T06:42:26.831Z,60.75
2018-12-12T06:44:33.626Z,60.91
2018-12-12T06:46:39.997Z,61.13
2018-12-12T06:48:46.205Z,60.95
2018-12-12T06:50:52.506Z,61.17
2018-12-12T06:52:59.817Z,61.02
2018-12-12T06:55:06.387Z,60.80
2018-12-12T06:57:12.731Z,60.89
2018-12-12T06:59:18.819Z,61.10
2018-12-12T07:01:47.685Z,61.19
2018-12-12T07:04:16.151Z,60.82
2018-12-12T07:06:22.560Z,60.76
2018-12-12T07:08:29.667Z,60.92
2018-12-12T07:10:35.835Z,60.66
2018-12-12T07:12:42.075Z,60.64
2018-12-12T07:14:48.275Z,60.85
2018-12-12T07:16:54.617Z,60.84
2018-12-12T07:19:01.002Z,60.69
2018-12-12T07:21:07.144Z,61.03
2018-12-12T07:23:14.346Z,60.67
2018-12-12T07:25:43.621Z,60.59
2018-12-12T07:28:12.663Z,60.69
2018-12-12T07:30:19.089Z,60.73
2018-12-12T07:34:43.237Z,61.13
2018-12-12T07:36:49.362Z,61.14
2018-12-12T07:38:55.578Z,60.87
2018-12-12T07:41:01.990Z,60.93
2018-12-12T07:43:41.026Z,61.06
2018-12-12T07:46:15.019Z,61.20
2018-12-12T07:48:23.178Z,60.87
2018-12-12T07:50:48.106Z,60.86
2018-12-12T07:53:11.206Z,61.09
2018-12-12T07:55:17.314Z,60.98
2018-12-12T07:57:23.515Z,60.87
2018-12-12T07:59:30.005Z,60.62
2018-12-12T08:01:36.510Z,60.80
2018-12-12T08:03:42.689Z,60.71
2018-12-12T08:05:48.915Z,61.18
2018-12-12T08:07:55.047Z,61.04
2018-12-12T08:10:03.215Z,61.01
2018-12-12T08:12:09.895Z,60.97
2018-12-12T08:14:16.433Z,61.34
2018-12-12T08:16:22.790Z,61.25
2018-12-12T08:18:29.043Z,61.12
2018-12-12T08:20:36.256Z,61.01
2018-12-12T08:22:42.560Z,61.15
2018-12-12T08:24:48.766Z,61.28
2018-12-12T08:26:55.026Z,61.24
2018-12-12T08:29:01.173Z,61.11
2018-12-12T08:31:07.557Z,61.05
2018-12-12T08:33:15.040Z,61.24
2018-12-12T08:35:21.250Z,61.23
2018-12-12T08:37:27.401Z,61.11
2018-12-12T08:39:33.497Z,61.08
2018-12-12T08:41:39.741Z,61.24
2018-12-12T08:43:46.297Z,61.08
2018-12-12T08:45:52.613Z,61.06
2018-12-12T08:47:58.733Z,61.02
2018-12-12T08:50:08.328Z,61.25
2018-12-12T08:54:32.268Z,61.04
2018-12-12T08:56:38.816Z,61.03
2018-12-12T08:58:45.730Z,60.69
2018-12-12T09:00:53.077Z,61.08
2018-12-12T09:02:59.124Z,60.65
2018-12-12T09:05:05.621Z,60.58
2018-12-12T09:07:11.877Z,60.73
2018-12-12T09:11:34.639Z,60.77
2018-12-12T09:13:42.160Z,60.81
2018-12-12T09:15:48.294Z,60.77
2018-12-12T09:17:55.338Z,60.90
2018-12-12T09:20:01.528Z,60.97
2018-12-12T09:22:08.942Z,60.79
2018-12-12T09:24:15.373Z,61.33
2018-12-12T09:26:21.539Z,60.85
2018-12-12T09:28:27.613Z,60.82
2018-12-12T09:30:37.372Z,61.14
2018-12-12T09:32:45.675Z,60.99
2018-12-12T09:35:15.140Z,61.12
2018-12-12T09:37:21.330Z,61.35
2018-12-12T09:39:27.438Z,61.09
2018-12-12T09:41:33.828Z,61.09
2018-12-12T09:43:40.467Z,61.06
2018-12-12T09:45:46.857Z,61.18
2018-12-12T09:47:53.207Z,61.38
2018-12-12T09:52:16.789Z,61.15
2018-12-12T09:54:25.121Z,60.97
2018-12-12T09:56:31.365Z,61.21
2018-12-12T09:58:37.505Z,61.27
2018-12-12T10:00:43.759Z,61.07
2018-12-12T10:02:50.214Z,61.16
2018-12-12T10:04:56.582Z,61.19
2018-12-12T10:07:02.934Z,61.20
2018-12-12T10:09:11.762Z,61.09
2018-12-12T10:11:18.169Z,61.14
2018-12-12T10:13:25.261Z,61.76
2018-12-12T10:15:31.434Z,61.30
2018-12-12T10:17:37.569Z,61.13
2018-12-12T10:19:43.963Z,61.71
2018-12-12T10:21:50.786Z,61.72
2018-12-12T10:23:56.993Z,61.55
2018-12-12T10:26:05.704Z,61.79
2018-12-12T10:28:12.162Z,61.82
2018-12-12T10:30:18.408Z,61.60
2018-12-12T10:32:24.676Z,61.60
2018-12-12T10:34:30.905Z,61.48
2018-12-12T10:38:54.930Z,61.69
2018-12-12T10:41:01.044Z,61.57
2018-12-12T10:43:07.856Z,61.44
2018-12-12T10:45:14.311Z,61.62
2018-12-12T10:47:20.513Z,61.77
2018-12-12T10:49:26.983Z,61.87
2018-12-12T10:51:33.107Z,61.62
2018-12-12T10:53:39.245Z,61.56
2018-12-12T10:55:45.321Z,61.52
2018-12-12T10:57:51.498Z,61.21
2018-12-12T10:59:57.662Z,61.44
2018-12-12T11:02:10.373Z,61.59
2018-12-12T11:04:18.886Z,61.47
2018-12-12T11:06:24.984Z,61.31
2018-12-12T11:08:32.454Z,61.17
2018-12-12T11:10:38.741Z,61.14
2018-12-12T11:12:44.981Z,61.43
2018-12-12T11:17:08.123Z,61.26
2018-12-12T11:19:14.440Z,61.47
2018-12-12T11:21:21.686Z,61.62
2018-12-12T11:23:28.013Z,61.17
2018-12-12T11:25:34.330Z,61.00
2018-12-12T11:27:41.115Z,61.09
2018-12-12T11:29:48.072Z,61.10
2018-12-12T11:31:54.314Z,61.28
2018-12-12T11:34:00.546Z,60.72
2018-12-12T11:36:07.150Z,60.76
2018-12-12T11:38:13.481Z,61.08
2018-12-12T11:40:19.770Z,60.82
2018-12-12T11:42:28.044Z,60.79
2018-12-12T11:44:34.224Z,61.17
2018-12-12T11:46:41.691Z,60.74
2018-12-12T11:48:48.029Z,60.83
2018-12-12T11:50:54.158Z,60.73
2018-12-12T11:53:00.342Z,60.89
2018-12-12T11:55:06.908Z,60.86
2018-12-12T11:57:13.969Z,60.74
2018-12-12T11:59:20.096Z,60.74
2018-12-12T12:01:26.420Z,60.92
2018-12-12T12:03:32.706Z,60.56
2018-12-12T12:05:39.105Z,61.14
2018-12-12T12:07:46.129Z,60.92
2018-12-12T12:09:52.389Z,60.29
2018-12-12T12:12:00.000Z,59.93
2018-12-12T12:14:08.452Z,60.40
2018-12-12T12:16:15.062Z,60.28
2018-12-12T12:18:21.241Z,60.46
2018-12-12T12:20:28.264Z,60.46
2018-12-12T12:22:34.718Z,60.08
2018-12-12T12:24:40.930Z,60.22
2018-12-12T12:26:47.304Z,60.66
2018-12-12T12:28:54.088Z,60.53
2018-12-12T12:31:00.269Z,60.52
2018-12-12T12:33:06.597Z,60.09
2018-12-12T12:35:14.323Z,60.34
2018-12-12T12:37:20.668Z,59.93
2018-12-12T12:39:28.066Z,60.11
2018-12-12T12:41:34.315Z,59.94
2018-12-12T12:43:40.502Z,59.85
2018-12-12T12:45:47.335Z,60.00
2018-12-12T12:47:53.957Z,59.23
2018-12-12T12:50:00.049Z,59.24
2018-12-12T12:52:06.684Z,58.96
2018-12-12T12:54:13.132Z,59.08
2018-12-12T12:58:37.821Z,59.19
2018-12-12T13:00:44.298Z,58.90
2018-12-12T13:02:50.550Z,58.76
2018-12-12T13:04:56.727Z,58.78
2018-12-12T13:07:02.943Z,58.64
2018-12-12T13:09:09.591Z,58.65
2018-12-12T13:11:15.756Z,58.97
2018-12-12T13:13:22.389Z,59.07
2018-12-12T13:15:29.122Z,58.77
2018-12-12T13:17:35.293Z,58.68
2018-12-12T13:19:41.506Z,58.99
2018-12-12T13:21:48.714Z,58.67
2018-12-12T13:23:55.010Z,58.66
2018-12-12T13:26:01.580Z,58.60
2018-12-12T13:28:07.699Z,58.57
2018-12-12T13:30:13.977Z,58.29
2018-12-12T13:32:20.945Z,58.40
2018-12-12T13:34:27.068Z,58.67
2018-12-12T13:36:33.290Z,58.11
2018-12-12T13:38:39.679Z,58.06
2018-12-12T13:40:45.754Z,58.25
2018-12-12T13:42:52.083Z,58.26
2018-12-12T13:44:58.526Z,57.87
2018-12-12T13:47:05.251Z,58.30
2018-12-12T13:49:12.762Z,58.27
2018-12-12T13:51:19.018Z,58.21
2018-12-12T13:53:25.647Z,58.09
2018-12-12T13:55:31.853Z,57.82
2018-12-12T13:57:39.264Z,58.10
2018-12-12T13:59:45.831Z,57.82
2018-12-12T14:01:52.186Z,58.18
2018-12-12T14:03:58.409Z,58.04
2018-12-12T14:06:05.317Z,58.29
2018-12-12T14:08:11.473Z,58.06
2018-12-12T14:10:17.678Z,58.54
2018-12-12T14:12:23.886Z,58.04
2018-12-12T14:14:30.176Z,58.53
2018-12-12T14:16:36.470Z,58.48
2018-12-12T14:18:43.483Z,58.36
2018-12-12T14:20:49.798Z,58.36
2018-12-12T14:22:55.991Z,58.42
2018-12-12T14:27:19.425Z,58.28
2018-12-12T14:29:25.783Z,58.14
2018-12-12T14:31:32.053Z,58.56
2018-12-12T14:33:38.605Z,58.52
2018-12-12T14:35:44.756Z,58.22
2018-12-12T14:40:09.373Z,58.21
2018-12-12T14:42:16.119Z,58.24
2018-12-12T14:44:22.455Z,58.25
2018-12-12T14:46:28.704Z,58.36
2018-12-12T14:48:34.877Z,58.32
2018-12-12T14:50:41.622Z,58.26
2018-12-12T14:52:47.829Z,58.39
2018-12-12T14:54:54.607Z,58.62
2018-12-12T14:59:19.399Z,58.59
2018-12-12T15:01:26.627Z,58.68
2018-12-12T15:03:33.476Z,58.46
2018-12-12T15:05:41.445Z,58.43
2018-12-12T15:07:48.041Z,58.65
2018-12-12T15:09:54.470Z,58.58
2018-12-12T15:12:01.882Z,58.49
2018-12-12T15:14:09.366Z,58.31
2018-12-12T15:16:15.852Z,58.70
2018-12-12T15:18:22.109Z,58.69
2018-12-12T15:20:28.252Z,58.79
2018-12-12T15:22:34.558Z,58.87
2018-12-12T15:24:40.851Z,58.98
2018-12-12T15:26:47.145Z,58.84
2018-12-12T15:28:54.232Z,59.19
2018-12-12T15:31:00.524Z,59.04
2018-12-12T15:33:08.625Z,59.01
2018-12-12T15:35:14.866Z,59.69
2018-12-12T15:37:21.343Z,59.69
2018-12-12T15:39:27.526Z,59.10
2018-12-12T15:41:34.338Z,59.40
2018-12-12T15:43:40.786Z,59.43
2018-12-12T15:45:47.147Z,59.23
2018-12-12T15:47:53.675Z,59.28
2018-12-12T15:50:00.715Z,59.43
2018-12-12T15:52:07.365Z,59.37
2018-12-12T15:54:13.545Z,59.50
2018-12-12T15:56:19.903Z,59.99
2018-12-12T15:58:26.243Z,59.75
2018-12-12T16:00:33.790Z,59.71
2018-12-12T16:02:40.584Z,59.74
2018-12-12T16:04:49.140Z,59.52
2018-12-12T16:06:55.536Z,59.71
2018-12-12T16:09:01.928Z,59.51
2018-12-12T16:11:10.233Z,59.38
2018-12-12T16:13:16.355Z,59.71
2018-12-12T16:15:22.683Z,59.70
2018-12-12T16:17:28.919Z,59.70
2018-12-12T16:19:35.390Z,59.77
2018-12-12T16:21:41.792Z,59.51
2018-12-12T16:23:48.119Z,59.84
2018-12-12T16:25:55.820Z,59.75
2018-12-12T16:28:02.199Z,60.34
2018-12-12T16:30:09.473Z,59.99
2018-12-12T16:32:15.873Z,60.01
2018-12-12T16:34:23.085Z,59.98
2018-12-12T16:36:29.861Z,59.72
2018-12-12T16:38:36.178Z,59.83
2018-12-12T16:46:43.359Z,59.88
2018-12-12T16:48:49.857Z,60.18
2018-12-12T16:50:56.129Z,60.51
2018-12-12T16:53:02.667Z,60.03
2018-12-12T16:55:09.350Z,60.52
2018-12-12T16:57:16.103Z,60.48
2018-12-12T16:59:23.248Z,60.89
2018-12-12T17:01:29.713Z,60.58
2018-12-12T17:03:36.813Z,60.87
2018-12-12T17:05:43.763Z,60.48
2018-12-12T17:07:49.999Z,60.47
2018-12-12T17:09:56.428Z,60.16
2018-12-12T17:12:16.770Z,60.58
2018-12-12T17:14:33.493Z,60.56
2018-12-12T17:16:40.975Z,60.50
2018-12-12T17:18:47.355Z,60.33
2018-12-12T17:20:54.348Z,60.37
2018-12-12T17:23:00.788Z,60.29
2018-12-12T17:25:07.222Z,60.64
2018-12-12T17:27:13.495Z,60.12
2018-12-12T17:29:19.726Z,60.67
2018-12-12T17:31:25.948Z,60.45
2018-12-12T17:33:32.094Z,60.27
2018-12-12T17:35:39.090Z,60.23
2018-12-12T17:37:47.630Z,60.42
2018-12-12T17:39:53.786Z,60.46
2018-12-12T17:42:00.086Z,60.73
2018-12-12T17:44:07.411Z,60.29
2018-12-12T17:46:14.572Z,60.43
2018-12-12T17:48:20.707Z,60.53
2018-12-12T17:50:26.968Z,60.73
2018-12-12T17:52:33.910Z,60.59
2018-12-12T17:54:42.197Z,60.83
2018-12-12T17:56:49.874Z,60.83
2018-12-12T17:58:56.085Z,60.83
2018-12-12T18:01:02.539Z,60.57
2018-12-12T18:03:11.293Z,60.51
2018-12-12T18:05:35.970Z,60.52
2018-12-12T18:07:44.148Z,60.59
2018-12-12T18:09:52.866Z,60.61
2018-12-12T18:12:02.047Z,60.41
2018-12-12T18:14:09.440Z,60.69
2018-12-12T18:16:19.150Z,60.68
2018-12-12T18:18:27.398Z,60.62
2018-12-12T18:20:34.909Z,60.64
2018-12-12T18:22:43.274Z,60.76
2018-12-12T18:24:51.659Z,60.48
2018-12-12T18:26:57.838Z,60.83
2018-12-12T18:29:04.809Z,60.72
2018-12-12T18:31:17.922Z,60.64
2018-12-12T18:33:29.647Z,60.63
2018-12-12T18:37:57.709Z,60.88
2018-12-12T18:40:04.243Z,60.67
2018-12-12T18:42:12.459Z,60.65
2018-12-12T18:44:32.643Z,60.73
2018-12-12T18:46:38.843Z,60.60
2018-12-12T18:48:45.151Z,60.67
2018-12-12T18:50:53.426Z,60.50
2018-12-12T18:53:09.504Z,60.58
2018-12-12T18:55:23.539Z,60.53
2018-12-12T18:57:30.707Z,60.72
2018-12-12T18:59:37.459Z,60.38
2018-12-12T19:01:43.880Z,60.46
2018-12-12T19:03:50.357Z,60.94
2018-12-12T19:05:56.691Z,60.76
2018-12-12T19:08:02.967Z,60.86
2018-12-12T19:10:17.612Z,60.72
2018-12-12T19:12:31.337Z,60.67
2018-12-12T19:14:39.792Z,60.63
2018-12-12T19:16:46.781Z,60.51
2018-12-12T19:18:53.205Z,60.43
2018-12-12T19:21:00.211Z,60.28
2018-12-12T19:23:07.414Z,60.42
2018-12-12T19:25:25.129Z,60.68
2018-12-12T19:27:38.827Z,60.03
2018-12-12T19:29:45.028Z,60.29
2018-12-12T19:31:51.239Z,60.01
2018-12-12T19:33:57.413Z,59.90
2018-12-12T19:36:03.668Z,60.35
2018-12-12T19:38:17.491Z,60.44
2018-12-12T19:40:31.360Z,60.10
2018-12-12T19:42:37.602Z,60.12
2018-12-12T19:44:43.892Z,60.21
2018-12-12T19:46:50.639Z,60.31
2018-12-12T19:48:56.880Z,60.47
2018-12-12T19:51:03.222Z,60.33
2018-12-12T19:53:16.759Z,60.35
2018-12-12T19:55:30.844Z,60.31
2018-12-12T19:57:37.424Z,60.33
2018-12-12T19:59:43.955Z,60.33
2018-12-12T20:01:50.854Z,60.66
2018-12-12T20:03:57.364Z,60.38
2018-12-12T20:06:03.927Z,60.40
2018-12-12T20:08:10.268Z,60.14
2018-12-12T20:10:16.609Z,60.61
2018-12-12T20:12:23.336Z,60.43
2018-12-12T20:14:29.612Z,60.46
2018-12-12T20:16:35.904Z,60.80
2018-12-12T20:18:42.323Z,60.60
2018-12-12T20:20:48.947Z,60.58
2018-12-12T20:22:55.267Z,60.60
2018-12-12T20:25:02.823Z,60.92
2018-12-12T20:27:16.908Z,60.57
2018-12-12T20:29:30.849Z,59.96
2018-12-12T20:31:37.365Z,60.80
2018-12-12T20:33:43.893Z,60.35
2018-12-12T20:35:51.351Z,60.80
2018-12-12T20:37:58.350Z,60.65
2018-12-12T20:40:05.460Z,60.21
2018-12-12T20:42:19.608Z,60.57
2018-12-12T20:44:34.486Z,60.74
2018-12-12T20:46:41.873Z,60.60
2018-12-12T20:48:48.665Z,60.36
2018-12-12T20:50:55.493Z,60.68
2018-12-12T20:53:07.989Z,60.52
2018-12-12T20:55:17.520Z,60.58
2018-12-12T20:57:24.472Z,60.50
2018-12-12T20:59:32.109Z,60.57
2018-12-12T21:01:38.479Z,60.72
2018-12-12T21:03:44.943Z,60.67
2018-12-12T21:05:54.569Z,60.43
2018-12-12T21:07:59.887Z,60.24
2018-12-12T21:10:06.793Z,60.37
2018-12-12T21:12:12.960Z,60.35
2018-12-12T21:14:19.764Z,59.97
2018-12-12T21:16:26.697Z,60.19
2018-12-12T21:18:32.877Z,60.04
2018-12-12T21:20:39.991Z,60.07
2018-12-12T21:22:46.236Z,60.06
2018-12-12T21:24:52.458Z,60.04
2018-12-12T21:27:00.701Z,60.17
2018-12-12T21:29:06.988Z,60.00
2018-12-12T21:31:13.449Z,59.93
2018-12-12T21:33:20.757Z,59.63
2018-12-12T21:35:27.229Z,59.87
2018-12-12T21:37:33.813Z,59.86
2018-12-12T21:39:40.071Z,59.68
2018-12-12T21:41:48.743Z,60.09
2018-12-12T21:43:55.318Z,59.80
2018-12-12T21:46:03.243Z,59.91
2018-12-12T21:48:09.931Z,59.94
2018-12-12T21:50:17.516Z,59.92
2018-12-12T21:52:24.970Z,59.74
2018-12-12T21:54:31.393Z,59.90
2018-12-12T21:56:37.692Z,60.01
2018-12-12T21:58:44.809Z,60.03
2018-12-12T22:00:51.111Z,60.02
2018-12-12T22:02:57.344Z,59.99
2018-12-12T22:05:03.480Z,60.09
2018-12-12T22:07:10.051Z,59.99
2018-12-12T22:09:16.570Z,59.76
2018-12-12T22:11:22.945Z,59.69
2018-12-12T22:13:29.177Z,60.07
2018-12-12T22:15:36.137Z,59.70
2018-12-12T22:17:44.168Z,59.87
2018-12-12T22:19:52.154Z,59.87
2018-12-12T22:21:58.472Z,59.93
2018-12-12T22:24:06.032Z,59.77
2018-12-12T22:26:13.013Z,59.86
2018-12-12T22:28:20.000Z,60.08
2018-12-12T22:30:26.821Z,59.84
2018-12-12T22:32:33.764Z,59.98
2018-12-12T22:34:39.903Z,59.78
2018-12-12T22:36:47.933Z,59.56
2018-12-12T22:38:54.419Z,59.95
2018-12-12T22:41:00.847Z,59.99
2018-12-12T22:43:07.021Z,59.90
2018-12-12T22:45:23.896Z,59.40
2018-12-12T22:47:32.818Z,59.54
2018-12-12T22:49:41.375Z,59.70
2018-12-12T22:51:47.917Z,59.80
2018-12-12T22:53:54.284Z,59.68
2018-12-12T22:56:00.851Z,59.53
2018-12-12T22:58:07.132Z,59.89
2018-12-12T23:00:18.725Z,59.89
2018-12-12T23:02:27.863Z,59.69
2018-12-12T23:04:34.480Z,60.07
2018-12-12T23:06:40.745Z,59.77
2018-12-12T23:08:47.376Z,59.69
2018-12-12T23:10:54.540Z,60.04
2018-12-12T23:13:00.853Z,60.24
2018-12-12T23:15:07.876Z,60.18
2018-12-12T23:17:14.670Z,60.11
2018-12-12T23:19:21.586Z,60.03
2018-12-12T23:21:28.141Z,60.25
2018-12-12T23:23:34.287Z,60.40
2018-12-12T23:25:44.545Z,60.14
2018-12-12T23:27:50.752Z,60.30
2018-12-12T23:29:58.432Z,60.38
2018-12-12T23:32:05.288Z,60.41
2018-12-12T23:34:11.501Z,60.35
2018-12-12T23:36:19.096Z,60.37
2018-12-12T23:38:26.432Z,60.35
2018-12-12T23:40:33.393Z,60.37
2018-12-12T23:42:40.634Z,60.29
2018-12-12T23:44:46.928Z,60.63
2018-12-12T23:46:53.147Z,60.27
2018-12-12T23:49:00.578Z,60.10
2018-12-12T23:51:06.780Z,60.06
2018-12-12T23:53:13.954Z,60.24
2018-12-12T23:55:20.153Z,60.18
2018-12-12T23:57:26.234Z,60.07
2018-12-12T23:59:33.469Z,60.08
